createdAt,value
2017-06-01T00:00:00.702Z,7.41
2017-06-01T00:01:00.387Z,7.39
2017-06-01T00:02:00.375Z,7.39
2017-06-01T00:03:00.679Z,7.32
2017-06-01T00:04:00.665Z,7.33
2017-06-01T00:05:00.653Z,7.5
2017-06-01T00:06:00.643Z,7.55
2017-06-01T00:07:00.336Z,7.51
2017-06-01T00:08:00.629Z,7.57
2017-06-01T00:09:00.680Z,7.54
2017-06-01T00:10:00.610Z,7.6
2017-06-01T00:11:00.615Z,7.71
2017-06-01T00:12:00.592Z,7.63
2017-06-01T00:13:00.584Z,7.69
2017-06-01T00:14:00.271Z,7.82
2017-06-01T00:15:00.264Z,7.86
2017-06-01T00:16:00.255Z,7.91
2017-06-01T00:17:00.243Z,7.96
2017-06-01T00:18:00.536Z,7.85
2017-06-01T00:19:00.227Z,7.99
2017-06-01T00:20:00.252Z,7.94
2017-06-01T00:21:00.517Z,8.03
2017-06-01T00:22:00.502Z,8.07
2017-06-01T00:23:00.493Z,8.04
2017-06-01T00:24:00.485Z,8.03
2017-06-01T00:25:00.178Z,8.14
2017-06-01T00:26:00.162Z,8.03
2017-06-01T00:27:00.155Z,8.04
2017-06-01T00:28:00.153Z,8
2017-06-01T00:29:00.513Z,7.91
2017-06-01T00:30:00.432Z,7.86
2017-06-01T00:31:00.419Z,7.85
2017-06-01T00:32:00.412Z,7.95
2017-06-01T00:33:00.105Z,8
2017-06-01T00:34:00.096Z,8.02
2017-06-01T00:35:00.395Z,8.04
2017-06-01T00:36:00.077Z,8.03
2017-06-01T00:37:00.374Z,8.03
2017-06-01T00:38:00.360Z,8
2017-06-01T00:39:00.049Z,8
2017-06-01T00:40:00.342Z,8.18
2017-06-01T00:41:00.033Z,8.18
2017-06-01T00:42:00.021Z,8.2
2017-06-01T00:43:00.313Z,8.14
2017-06-01T00:44:00.362Z,8.06
2017-06-01T00:45:00.299Z,7.99
2017-06-01T00:45:59.987Z,8.06
2017-06-01T00:47:00.276Z,8.12
2017-06-01T00:47:59.968Z,8.22
2017-06-01T00:48:59.959Z,8.18
2017-06-01T00:49:59.964Z,8.2
2017-06-01T00:51:00.247Z,8.1
2017-06-01T00:51:59.933Z,8.14
2017-06-01T00:53:00.226Z,8.22
2017-06-01T00:53:59.914Z,8.31
2017-06-01T00:54:59.908Z,8.32
2017-06-01T00:55:59.902Z,8.34
2017-06-01T00:56:59.888Z,8.4
2017-06-01T00:57:59.880Z,8.36
2017-06-01T00:58:59.873Z,8.34
2017-06-01T01:00:00.165Z,8.37
2017-06-01T01:00:59.855Z,8.34
2017-06-01T01:02:00.151Z,8.42
2017-06-01T01:03:00.142Z,8.49
2017-06-01T01:03:59.832Z,8.5
2017-06-01T01:05:00.122Z,8.55
2017-06-01T01:05:59.818Z,8.47
2017-06-01T01:07:00.105Z,8.4
2017-06-01T01:08:00.095Z,8.34
2017-06-01T01:09:00.085Z,8.46
2017-06-01T01:10:00.081Z,8.39
2017-06-01T01:11:00.069Z,8.36
2017-06-01T01:12:00.062Z,8.37
2017-06-01T01:13:00.053Z,8.37
2017-06-01T01:14:00.044Z,8.4
2017-06-01T01:15:00.042Z,8.42
2017-06-01T01:16:00.033Z,8.4
2017-06-01T01:16:59.719Z,8.46
2017-06-01T01:17:59.711Z,8.42
2017-06-01T01:18:59.702Z,8.45
2017-06-01T01:20:00.125Z,8.5
2017-06-01T01:20:59.992Z,8.57
2017-06-01T01:21:59.979Z,8.55
2017-06-01T01:22:59.971Z,8.68
2017-06-01T01:23:59.960Z,8.68
2017-06-01T01:24:59.957Z,8.7
2017-06-01T01:25:59.942Z,8.8
2017-06-01T01:26:59.936Z,8.79
2017-06-01T01:27:59.632Z,8.65
2017-06-01T01:28:59.918Z,8.78
2017-06-01T01:29:59.930Z,8.96
2017-06-01T01:30:59.904Z,8.91
2017-06-01T01:31:59.897Z,9
2017-06-01T01:32:59.887Z,8.88
2017-06-01T01:33:59.877Z,8.83
2017-06-01T01:34:59.870Z,8.78
2017-06-01T01:35:59.560Z,8.82
2017-06-01T01:36:59.852Z,8.61
2017-06-01T01:37:59.848Z,8.68
2017-06-01T01:38:59.540Z,8.58
2017-06-01T01:39:59.830Z,8.55
2017-06-01T01:40:59.819Z,8.55
2017-06-01T01:41:59.813Z,8.55
2017-06-01T01:42:59.803Z,8.57
2017-06-01T01:43:59.804Z,8.64
2017-06-01T01:44:59.491Z,8.73
2017-06-01T01:45:59.790Z,8.68
2017-06-01T01:46:59.773Z,8.76
2017-06-01T01:47:59.763Z,8.65
2017-06-01T01:48:59.754Z,8.63
2017-06-01T01:49:59.443Z,8.68
2017-06-01T01:50:59.740Z,8.67
2017-06-01T01:51:59.726Z,8.6
2017-06-01T01:52:59.719Z,8.65
2017-06-01T01:53:59.713Z,8.68
2017-06-01T01:54:59.399Z,8.61
2017-06-01T01:55:59.393Z,8.61
2017-06-01T01:56:59.686Z,8.55
2017-06-01T01:57:59.683Z,8.57
2017-06-01T01:58:59.669Z,8.42
2017-06-01T01:59:59.706Z,8.42
2017-06-01T02:00:59.651Z,8.34
2017-06-01T02:01:59.641Z,8.31
2017-06-01T02:02:59.634Z,8.31
2017-06-01T02:03:59.619Z,8.29
2017-06-01T02:04:59.632Z,8.14
2017-06-01T02:05:59.606Z,8.21
2017-06-01T02:06:59.598Z,8.14
2017-06-01T02:07:59.589Z,8.27
2017-06-01T02:08:59.278Z,8.21
2017-06-01T02:09:59.569Z,8.13
2017-06-01T02:10:59.563Z,8.02
2017-06-01T02:11:59.247Z,8.02
2017-06-01T02:12:59.539Z,8.02
2017-06-01T02:13:59.530Z,8.03
2017-06-01T02:14:59.523Z,7.99
2017-06-01T02:15:59.511Z,8
2017-06-01T02:16:59.501Z,8.02
2017-06-01T02:17:59.491Z,7.92
2017-06-01T02:18:59.181Z,7.84
2017-06-01T02:19:59.494Z,7.82
2017-06-01T02:20:59.468Z,7.79
2017-06-01T02:21:59.453Z,7.86
2017-06-01T02:22:59.446Z,7.67
2017-06-01T02:23:59.434Z,7.73
2017-06-01T02:24:59.423Z,7.81
2017-06-01T02:25:59.415Z,7.81
2017-06-01T02:26:59.405Z,7.82
2017-06-01T02:27:59.392Z,7.91
2017-06-01T02:28:59.384Z,7.79
2017-06-01T02:29:59.374Z,7.82
2017-06-01T02:30:59.364Z,7.81
2017-06-01T02:31:59.352Z,7.85
2017-06-01T02:32:59.348Z,7.84
2017-06-01T02:33:59.398Z,7.85
2017-06-01T02:34:59.323Z,7.86
2017-06-01T02:35:59.311Z,7.74
2017-06-01T02:36:59.305Z,7.86
2017-06-01T02:37:59.293Z,7.81
2017-06-01T02:38:59.284Z,7.84
2017-06-01T02:39:59.272Z,7.77
2017-06-01T02:40:59.267Z,7.7
2017-06-01T02:41:59.255Z,7.69
2017-06-01T02:42:59.248Z,7.58
2017-06-01T02:43:58.932Z,7.66
2017-06-01T02:44:59.222Z,7.55
2017-06-01T02:45:59.212Z,7.54
2017-06-01T02:46:59.196Z,7.7
2017-06-01T02:47:59.186Z,7.69
2017-06-01T02:48:58.879Z,7.82
2017-06-01T02:49:59.165Z,7.81
2017-06-01T02:50:59.161Z,7.81
2017-06-01T02:51:59.152Z,7.85
2017-06-01T02:52:59.144Z,7.71
2017-06-01T02:53:59.129Z,7.66
2017-06-01T02:54:59.120Z,7.7
2017-06-01T02:55:59.110Z,7.76
2017-06-01T02:56:58.794Z,7.7
2017-06-01T02:57:59.086Z,7.67
2017-06-01T02:58:59.078Z,7.66
2017-06-01T02:59:58.766Z,7.73
2017-06-01T03:00:59.058Z,7.73
2017-06-01T03:01:59.045Z,7.63
2017-06-01T03:02:59.037Z,7.62
2017-06-01T03:03:59.023Z,7.6
2017-06-01T03:04:59.013Z,7.58
2017-06-01T03:05:59.005Z,7.48
2017-06-01T03:06:59.007Z,7.52
2017-06-01T03:07:58.983Z,7.52
2017-06-01T03:08:58.973Z,7.54
2017-06-01T03:09:58.998Z,7.54
2017-06-01T03:10:58.959Z,7.57
2017-06-01T03:11:58.944Z,7.55
2017-06-01T03:12:58.935Z,7.51
2017-06-01T03:13:58.925Z,7.57
2017-06-01T03:14:58.915Z,7.47
2017-06-01T03:15:58.910Z,7.52
2017-06-01T03:16:58.888Z,7.42
2017-06-01T03:17:58.574Z,7.39
2017-06-01T03:18:58.870Z,7.52
2017-06-01T03:19:58.856Z,7.5
2017-06-01T03:20:58.850Z,7.41
2017-06-01T03:21:58.836Z,7.44
2017-06-01T03:22:58.829Z,7.47
2017-06-01T03:23:58.824Z,7.47
2017-06-01T03:24:58.805Z,7.45
2017-06-01T03:25:58.794Z,7.5
2017-06-01T03:26:58.788Z,7.42
2017-06-01T03:27:58.775Z,7.51
2017-06-01T03:28:58.765Z,7.42
2017-06-01T03:29:58.751Z,7.42
2017-06-01T03:30:58.741Z,7.34
2017-06-01T03:31:58.732Z,7.3
2017-06-01T03:32:58.725Z,7.39
2017-06-01T03:33:58.710Z,7.47
2017-06-01T03:34:58.699Z,7.42
2017-06-01T03:35:58.691Z,7.45
2017-06-01T03:36:58.677Z,7.39
2017-06-01T03:37:58.673Z,7.42
2017-06-01T03:38:58.659Z,7.41
2017-06-01T03:39:58.646Z,7.41
2017-06-01T03:40:58.635Z,7.32
2017-06-01T03:41:58.626Z,7.24
2017-06-01T03:42:58.615Z,7.29
2017-06-01T03:43:58.601Z,7.21
2017-06-01T03:44:58.590Z,7.19
2017-06-01T03:45:58.287Z,7.19
2017-06-01T03:46:58.567Z,7.29
2017-06-01T03:47:58.556Z,7.27
2017-06-01T03:48:58.550Z,7.29
2017-06-01T03:49:58.239Z,7.29
2017-06-01T03:50:58.528Z,7.29
2017-06-01T03:51:58.519Z,7.29
2017-06-01T03:52:58.505Z,7.27
2017-06-01T03:53:58.500Z,7.3
2017-06-01T03:54:58.489Z,7.37
2017-06-01T03:55:58.475Z,7.37
2017-06-01T03:56:58.462Z,7.44
2017-06-01T03:57:58.453Z,7.41
2017-06-01T03:58:58.443Z,7.37
2017-06-01T03:59:58.431Z,7.44
2017-06-01T04:00:58.424Z,7.44
2017-06-01T04:01:58.410Z,7.44
2017-06-01T04:02:58.097Z,7.54
2017-06-01T04:03:58.389Z,7.44
2017-06-01T04:04:58.377Z,7.48
2017-06-01T04:05:58.368Z,7.63
2017-06-01T04:06:58.353Z,7.7
2017-06-01T04:07:58.347Z,7.86
2017-06-01T04:08:58.337Z,7.91
2017-06-01T04:09:58.329Z,7.92
2017-06-01T04:10:58.319Z,7.91
2017-06-01T04:11:58.318Z,7.99
2017-06-01T04:12:58.297Z,8.03
2017-06-01T04:13:58.286Z,7.92
2017-06-01T04:14:58.278Z,7.88
2017-06-01T04:15:57.963Z,7.91
2017-06-01T04:16:57.952Z,7.77
2017-06-01T04:17:58.245Z,7.67
2017-06-01T04:18:57.931Z,7.69
2017-06-01T04:19:58.225Z,7.54
2017-06-01T04:20:58.232Z,7.62
2017-06-01T04:21:58.204Z,7.6
2017-06-01T04:22:58.190Z,7.57
2017-06-01T04:23:58.186Z,7.52
2017-06-01T04:24:58.170Z,7.54
2017-06-01T04:25:58.160Z,7.58
2017-06-01T04:26:58.148Z,7.51
2017-06-01T04:27:58.136Z,7.5
2017-06-01T04:28:58.127Z,7.54
2017-06-01T04:29:58.117Z,7.62
2017-06-01T04:30:58.108Z,7.6
2017-06-01T04:31:58.098Z,7.66
2017-06-01T04:32:58.082Z,7.54
2017-06-01T04:33:58.084Z,7.51
2017-06-01T04:34:58.064Z,7.54
2017-06-01T04:35:57.750Z,7.52
2017-06-01T04:36:58.043Z,7.5
2017-06-01T04:37:58.033Z,7.39
2017-06-01T04:38:58.024Z,7.5
2017-06-01T04:39:58.012Z,7.44
2017-06-01T04:40:57.699Z,7.48
2017-06-01T04:41:57.692Z,7.37
2017-06-01T04:42:57.981Z,7.42
2017-06-01T04:43:57.971Z,7.5
2017-06-01T04:44:57.659Z,7.5
2017-06-01T04:45:57.648Z,7.6
2017-06-01T04:46:57.633Z,7.7
2017-06-01T04:47:57.930Z,7.66
2017-06-01T04:48:57.916Z,7.79
2017-06-01T04:49:57.600Z,7.74
2017-06-01T04:50:57.895Z,7.86
2017-06-01T04:51:57.884Z,7.84
2017-06-01T04:52:57.877Z,7.77
2017-06-01T04:53:57.562Z,7.81
2017-06-01T04:54:57.854Z,7.6
2017-06-01T04:55:57.545Z,7.55
2017-06-01T04:56:57.533Z,7.54
2017-06-01T04:57:57.523Z,7.45
2017-06-01T04:58:57.563Z,7.41
2017-06-01T04:59:57.505Z,7.27
2017-06-01T05:00:57.495Z,7.29
2017-06-01T05:01:57.792Z,7.26
2017-06-01T05:02:57.776Z,7.33
2017-06-01T05:03:57.783Z,7.33
2017-06-01T05:04:57.755Z,7.27
2017-06-01T05:05:57.746Z,7.19
2017-06-01T05:06:57.741Z,7.21
2017-06-01T05:07:57.730Z,7.32
2017-06-01T05:08:57.713Z,7.47
2017-06-01T05:09:57.709Z,7.41
2017-06-01T05:10:57.694Z,7.5
2017-06-01T05:11:57.694Z,7.74
2017-06-01T05:12:57.676Z,7.77
2017-06-01T05:13:57.366Z,7.79
2017-06-01T05:14:57.659Z,7.82
2017-06-01T05:15:57.651Z,7.94
2017-06-01T05:16:57.636Z,7.96
2017-06-01T05:17:57.631Z,8
2017-06-01T05:18:57.618Z,8.06
2017-06-01T05:19:57.604Z,8.04
2017-06-01T05:20:57.597Z,8.28
2017-06-01T05:21:57.590Z,8.39
2017-06-01T05:22:57.581Z,8.7
2017-06-01T05:23:57.574Z,9.08
2017-06-01T05:24:57.590Z,9.24
2017-06-01T05:25:57.556Z,9.35
2017-06-01T05:26:57.545Z,9.41
2017-06-01T05:27:57.534Z,9.41
2017-06-01T05:28:57.528Z,9.5
2017-06-01T05:29:57.518Z,9.49
2017-06-01T05:30:57.507Z,9.35
2017-06-01T05:31:57.510Z,8.83
2017-06-01T05:32:57.517Z,8.83
2017-06-01T05:33:57.490Z,9.08
2017-06-01T05:34:57.474Z,9.01
2017-06-01T05:35:57.468Z,9.06
2017-06-01T05:36:57.461Z,8.68
2017-06-01T05:37:57.447Z,8.7
2017-06-01T05:38:57.444Z,8.7
2017-06-01T05:39:57.433Z,8.68
2017-06-01T05:40:57.434Z,8.91
2017-06-01T05:41:57.419Z,9.04
2017-06-01T05:42:57.408Z,9.24
2017-06-01T05:43:57.401Z,9
2017-06-01T05:44:57.086Z,9.13
2017-06-01T05:45:57.386Z,9.52
2017-06-01T05:46:57.378Z,9.73
2017-06-01T05:47:57.365Z,10.14
2017-06-01T05:48:57.354Z,10.6
2017-06-01T05:49:57.349Z,10.14
2017-06-01T05:50:57.345Z,10.1
2017-06-01T05:51:57.333Z,10.2
2017-06-01T05:52:57.344Z,10.36
2017-06-01T05:53:57.317Z,10.01
2017-06-01T05:54:57.305Z,10.2
2017-06-01T05:55:57.297Z,10.26
2017-06-01T05:56:57.287Z,10.31
2017-06-01T05:57:57.277Z,9.8
2017-06-01T05:58:57.271Z,9.85
2017-06-01T05:59:56.659Z,9.73
2017-06-01T06:00:57.255Z,9.59
2017-06-01T06:01:57.247Z,9.65
2017-06-01T06:02:56.636Z,9.71
2017-06-01T06:03:57.235Z,9.73
2017-06-01T06:04:57.221Z,9.89
2017-06-01T06:05:57.212Z,10.1
2017-06-01T06:06:57.206Z,10.25
2017-06-01T06:07:57.196Z,10.25
2017-06-01T06:08:57.186Z,10.01
2017-06-01T06:09:57.183Z,9.86
2017-06-01T06:10:57.172Z,10.24
2017-06-01T06:11:57.165Z,10.69
2017-06-01T06:12:57.169Z,11.33
2017-06-01T06:13:56.547Z,11.67
2017-06-01T06:14:56.839Z,12.21
2017-06-01T06:15:56.834Z,12.59
2017-06-01T06:16:57.135Z,12.74
2017-06-01T06:17:57.181Z,12.89
2017-06-01T06:18:57.114Z,12.4
2017-06-01T06:19:57.106Z,12.31
2017-06-01T06:20:57.105Z,12.21
2017-06-01T06:21:57.087Z,12.04
2017-06-01T06:22:57.083Z,12.07
2017-06-01T06:23:57.076Z,11.93
2017-06-01T06:24:56.770Z,11.74
2017-06-01T06:25:57.074Z,11.39
2017-06-01T06:26:57.059Z,11.51
2017-06-01T06:27:57.058Z,11.51
2017-06-01T06:28:57.046Z,11.79
2017-06-01T06:29:57.037Z,11.77
2017-06-01T06:30:57.029Z,11.75
2017-06-01T06:31:57.025Z,11.84
2017-06-01T06:32:56.712Z,12.08
2017-06-01T06:33:57.015Z,12.18
2017-06-01T06:34:57.006Z,12.16
2017-06-01T06:35:56.699Z,12.13
2017-06-01T06:36:56.714Z,11.97
2017-06-01T06:37:56.987Z,12.16
2017-06-01T06:38:56.979Z,11.96
2017-06-01T06:39:56.978Z,11.75
2017-06-01T06:40:56.962Z,11.19
2017-06-01T06:41:57.162Z,10.06
2017-06-01T06:42:56.953Z,9.71
2017-06-01T06:43:56.640Z,10.07
2017-06-01T06:44:56.634Z,10.14
2017-06-01T06:45:56.631Z,10.47
2017-06-01T06:46:56.620Z,10.75
2017-06-01T06:47:57.129Z,10.94
2017-06-01T06:48:56.603Z,11.12
2017-06-01T06:49:56.903Z,11.42
2017-06-01T06:50:56.896Z,11.64
2017-06-01T06:51:57.093Z,12.07
2017-06-01T06:52:56.880Z,12.29
2017-06-01T06:53:56.871Z,12.41
2017-06-01T06:54:56.566Z,12.58
2017-06-01T06:55:56.857Z,12.71
2017-06-01T06:56:56.855Z,12.74
2017-06-01T06:57:56.847Z,12.77
2017-06-01T06:58:56.840Z,12.89
2017-06-01T06:59:56.839Z,12.98
2017-06-01T07:00:56.832Z,12.91
2017-06-01T07:01:56.824Z,13.06
2017-06-01T07:02:56.819Z,13.21
2017-06-01T07:03:56.809Z,13.39
2017-06-01T07:04:56.858Z,13.63
2017-06-01T07:05:56.795Z,14.05
2017-06-01T07:06:56.789Z,14.24
2017-06-01T07:07:56.785Z,13.71
2017-06-01T07:08:56.780Z,14.02
2017-06-01T07:09:56.773Z,14.38
2017-06-01T07:10:56.769Z,14.49
2017-06-01T07:11:56.762Z,14.46
2017-06-01T07:12:56.753Z,14.52
2017-06-01T07:13:56.749Z,14.52
2017-06-01T07:15:11.356Z,14.36
2017-06-01T07:15:56.955Z,14.35
2017-06-01T07:16:56.731Z,14.87
2017-06-01T07:17:56.724Z,14.94
2017-06-01T07:18:56.721Z,14.67
2017-06-01T07:19:56.725Z,14.64
2017-06-01T07:20:56.612Z,14.82
2017-06-01T07:21:56.705Z,14.53
2017-06-01T07:23:10.593Z,14.49
2017-06-01T07:23:56.394Z,14.66
2017-06-01T07:24:56.692Z,14.52
2017-06-01T07:25:56.385Z,13.76
2017-06-01T07:26:56.580Z,13.01
2017-06-01T07:27:56.574Z,12.51
2017-06-01T07:28:56.669Z,12.38
2017-06-01T07:29:56.364Z,12.29
2017-06-01T07:30:56.352Z,11.94
2017-06-01T07:31:56.347Z,11.49
2017-06-01T07:32:56.850Z,10.99
2017-06-01T07:33:56.643Z,10.9
2017-06-01T07:34:56.638Z,11.09
2017-06-01T07:35:56.631Z,10.83
2017-06-01T07:36:56.625Z,10.35
2017-06-01T07:37:56.618Z,10.17
2017-06-01T07:38:56.309Z,10.02
2017-06-01T07:39:56.618Z,9.67
2017-06-01T07:40:56.602Z,9.53
2017-06-01T07:41:56.589Z,9.58
2017-06-01T07:42:56.588Z,9.85
2017-06-01T07:43:56.576Z,9.86
2017-06-01T07:44:56.574Z,9.93
2017-06-01T07:45:56.568Z,9.59
2017-06-01T07:46:56.561Z,9.06
2017-06-01T07:47:56.552Z,8.39
2017-06-01T07:48:56.248Z,8.22
2017-06-01T07:49:56.535Z,7.73
2017-06-01T07:50:56.527Z,7.52
2017-06-01T07:51:56.520Z,7.69
2017-06-01T07:52:55.908Z,7.57
2017-06-01T07:53:56.496Z,7.6
2017-06-01T07:54:56.192Z,7.79
2017-06-01T07:55:56.487Z,7.79
2017-06-01T07:56:56.471Z,7.57
2017-06-01T07:57:56.463Z,7.33
2017-06-01T07:58:56.470Z,7.09
2017-06-01T08:00:09.536Z,6.93
2017-06-01T08:00:56.646Z,7
2017-06-01T08:01:56.484Z,6.69
2017-06-01T08:02:56.118Z,6.61
2017-06-01T08:03:56.105Z,6.71
2017-06-01T08:04:56.400Z,6.87
2017-06-01T08:05:56.083Z,6.87
2017-06-01T08:06:55.777Z,6.78
2017-06-01T08:07:55.766Z,6.83
2017-06-01T08:08:56.359Z,6.96
2017-06-01T08:09:56.551Z,7.12
2017-06-01T08:10:56.036Z,7.21
2017-06-01T08:11:55.729Z,7.34
2017-06-01T08:12:56.016Z,7.24
2017-06-01T08:13:55.706Z,7.32
2017-06-01T08:14:56.300Z,7.42
2017-06-01T08:15:56.300Z,7.45
2017-06-01T08:16:56.007Z,7.62
2017-06-01T08:17:56.271Z,7.73
2017-06-01T08:18:55.962Z,7.74
2017-06-01T08:19:56.250Z,7.76
2017-06-01T08:20:55.942Z,7.34
2017-06-01T08:21:55.934Z,7
2017-06-01T08:22:55.621Z,7.08
2017-06-01T08:23:55.606Z,7.27
2017-06-01T08:24:55.899Z,7.42
2017-06-01T08:25:55.893Z,7.42
2017-06-01T08:26:56.184Z,7.32
2017-06-01T08:27:55.872Z,7.33
2017-06-01T08:28:55.859Z,7.11
2017-06-01T08:29:56.151Z,7
2017-06-01T08:30:55.840Z,7.14
2017-06-01T08:31:56.140Z,7.3
2017-06-01T08:32:56.020Z,7.44
2017-06-01T08:33:56.111Z,7.51
2017-06-01T08:34:56.101Z,7.54
2017-06-01T08:35:56.097Z,7.3
2017-06-01T08:36:56.082Z,6.97
2017-06-01T08:37:56.269Z,6.99
2017-06-01T08:38:56.264Z,6.87
2017-06-01T08:39:56.053Z,6.73
2017-06-01T08:40:56.039Z,6.78
2017-06-01T08:41:55.427Z,7.01
2017-06-01T08:42:55.926Z,7.14
2017-06-01T08:43:56.212Z,7.3
2017-06-01T08:44:56.003Z,7.48
2017-06-01T08:45:55.995Z,7.52
2017-06-01T08:46:55.682Z,7.62
2017-06-01T08:47:55.971Z,7.7
2017-06-01T08:48:55.659Z,7.85
2017-06-01T08:49:55.951Z,8.25
2017-06-01T08:50:55.946Z,8.36
2017-06-01T08:51:55.933Z,8.45
2017-06-01T08:52:55.621Z,8.45
2017-06-01T08:53:55.610Z,8.63
2017-06-01T08:54:55.901Z,8.89
2017-06-01T08:55:55.592Z,9.22
2017-06-01T08:56:55.885Z,9.12
2017-06-01T08:57:55.877Z,9.23
2017-06-01T08:58:55.864Z,9.1
2017-06-01T08:59:55.852Z,9.03
2017-06-01T09:00:55.844Z,9.12
2017-06-01T09:01:55.838Z,9.34
2017-06-01T09:02:55.826Z,9.65
2017-06-01T09:03:55.817Z,9.38
2017-06-01T09:04:55.810Z,8.88
2017-06-01T09:05:55.804Z,8.68
2017-06-01T09:06:55.795Z,8.78
2017-06-01T09:07:55.784Z,8.61
2017-06-01T09:08:55.479Z,8.46
2017-06-01T09:09:55.468Z,8.42
2017-06-01T09:10:55.760Z,7.96
2017-06-01T09:11:55.668Z,8.24
2017-06-01T09:12:55.742Z,8.34
2017-06-01T09:13:55.790Z,8.67
2017-06-01T09:14:55.728Z,9
2017-06-01T09:15:55.715Z,9.35
2017-06-01T09:16:55.710Z,9.62
2017-06-01T09:17:55.697Z,9.81
2017-06-01T09:18:55.692Z,9.95
2017-06-01T09:19:55.681Z,10.07
2017-06-01T09:20:55.675Z,10.36
2017-06-01T09:21:55.666Z,10.44
2017-06-01T09:22:55.657Z,10.35
2017-06-01T09:23:55.650Z,10.36
2017-06-01T09:24:55.639Z,10.58
2017-06-01T09:25:55.632Z,9.7
2017-06-01T09:26:55.623Z,9.08
2017-06-01T09:27:55.616Z,8.76
2017-06-01T09:28:55.609Z,8.76
2017-06-01T09:29:55.297Z,8.8
2017-06-01T09:30:55.589Z,9
2017-06-01T09:31:55.582Z,9.34
2017-06-01T09:32:55.574Z,9.35
2017-06-01T09:33:55.563Z,9.27
2017-06-01T09:34:55.259Z,9.24
2017-06-01T09:35:55.250Z,9.38
2017-06-01T09:36:55.240Z,9.58
2017-06-01T09:37:55.527Z,9.59
2017-06-01T09:38:55.222Z,9.75
2017-06-01T09:39:55.515Z,8.4
2017-06-01T09:40:55.544Z,7.32
2017-06-01T09:41:55.259Z,6.89
2017-06-01T09:42:55.506Z,6.75
2017-06-01T09:43:55.179Z,6.87
2017-06-01T09:44:55.167Z,7.15
2017-06-01T09:45:55.158Z,7.73
2017-06-01T09:46:55.148Z,8.36
2017-06-01T09:47:55.137Z,8.54
2017-06-01T09:48:54.847Z,8.73
2017-06-01T09:49:55.120Z,9.1
2017-06-01T09:50:55.414Z,9.6
2017-06-01T09:51:55.404Z,10.26
2017-06-01T09:52:55.396Z,10.91
2017-06-01T09:53:55.400Z,11.6
2017-06-01T09:54:55.378Z,11.59
2017-06-01T09:55:55.372Z,11.56
2017-06-01T09:56:55.366Z,11.75
2017-06-01T09:57:55.355Z,12.49
2017-06-01T09:58:55.347Z,12.87
2017-06-01T09:59:55.337Z,13.07
2017-06-01T10:00:55.329Z,13.73
2017-06-01T10:01:55.321Z,13.75
2017-06-01T10:02:55.015Z,13.53
2017-06-01T10:03:55.306Z,13.69
2017-06-01T10:04:55.001Z,13.8
2017-06-01T10:05:54.690Z,14.3
2017-06-01T10:06:55.288Z,15.05
2017-06-01T10:07:54.986Z,15.88
2017-06-01T10:08:55.273Z,16.34
2017-06-01T10:09:55.266Z,16.66
2017-06-01T10:10:55.260Z,16.25
2017-06-01T10:11:55.254Z,15.89
2017-06-01T10:12:55.250Z,16.18
2017-06-01T10:13:54.950Z,16.57
2017-06-01T10:14:55.245Z,17.22
2017-06-01T10:15:54.933Z,17.7
2017-06-01T10:16:55.232Z,17.92
2017-06-01T10:17:55.250Z,17.43
2017-06-01T10:18:55.222Z,17.58
2017-06-01T10:19:55.212Z,17.99
2017-06-01T10:20:54.911Z,18.14
2017-06-01T10:21:54.906Z,18.47
2017-06-01T10:22:55.203Z,18.49
2017-06-01T10:23:55.205Z,18.11
2017-06-01T10:24:54.900Z,17.89
2017-06-01T10:25:55.194Z,17.47
2017-06-01T10:26:55.190Z,16.33
2017-06-01T10:27:55.192Z,16.29
2017-06-01T10:28:55.188Z,16.57
2017-06-01T10:29:54.578Z,16.25
2017-06-01T10:30:55.190Z,15.76
2017-06-01T10:31:55.180Z,16.27
2017-06-01T10:32:55.175Z,16.7
2017-06-01T10:33:55.175Z,16.75
2017-06-01T10:34:54.876Z,16.78
2017-06-01T10:35:54.868Z,14.61
2017-06-01T10:36:55.167Z,14.41
2017-06-01T10:37:54.857Z,14.36
2017-06-01T10:38:55.158Z,14.9
2017-06-01T10:39:55.160Z,15.07
2017-06-01T10:40:55.149Z,15.13
2017-06-01T10:41:54.848Z,15.43
2017-06-01T10:42:55.141Z,16.08
2017-06-01T10:43:55.145Z,16.73
2017-06-01T10:44:55.135Z,17.32
2017-06-01T10:45:55.137Z,18.04
2017-06-01T10:46:54.832Z,18.41
2017-06-01T10:47:54.825Z,19.07
2017-06-01T10:48:55.125Z,19.82
2017-06-01T10:49:55.125Z,20.31
2017-06-01T10:50:55.117Z,20.16
2017-06-01T10:51:55.116Z,19.46
2017-06-01T10:52:54.813Z,19.3
2017-06-01T10:53:54.816Z,19.34
2017-06-01T10:54:55.109Z,19.9
2017-06-01T10:55:55.104Z,20.64
2017-06-01T10:56:55.105Z,20.97
2017-06-01T10:57:55.101Z,20.96
2017-06-01T10:58:55.097Z,20.17
2017-06-01T10:59:55.097Z,18.66
2017-06-01T11:00:54.790Z,18.23
2017-06-01T11:01:55.087Z,17.77
2017-06-01T11:02:55.083Z,17.53
2017-06-01T11:03:54.480Z,17.35
2017-06-01T11:04:55.083Z,17
2017-06-01T11:05:55.079Z,15.99
2017-06-01T11:06:54.773Z,15.12
2017-06-01T11:07:55.074Z,13.9
2017-06-01T11:08:55.073Z,13.1
2017-06-01T11:09:55.071Z,13.47
2017-06-01T11:10:55.067Z,13.96
2017-06-01T11:11:54.759Z,14.3
2017-06-01T11:12:55.079Z,14.67
2017-06-01T11:13:55.054Z,14.53
2017-06-01T11:14:55.048Z,14.21
2017-06-01T11:15:55.046Z,13.96
2017-06-01T11:16:55.045Z,13.46
2017-06-01T11:17:54.435Z,13.41
2017-06-01T11:18:55.033Z,13.69
2017-06-01T11:19:54.429Z,13.19
2017-06-01T11:20:54.728Z,13.19
2017-06-01T11:21:55.024Z,13.04
2017-06-01T11:22:55.019Z,13.5
2017-06-01T11:23:55.015Z,13.73
2017-06-01T11:24:55.014Z,13.71
2017-06-01T11:25:54.701Z,13.57
2017-06-01T11:26:55.003Z,13.76
2017-06-01T11:27:55.001Z,14.06
2017-06-01T11:28:54.992Z,14.01
2017-06-01T11:29:54.994Z,13.65
2017-06-01T11:30:54.989Z,13.72
2017-06-01T11:31:54.986Z,13.87
2017-06-01T11:32:54.982Z,14.3
2017-06-01T11:33:54.975Z,14.94
2017-06-01T11:34:54.976Z,15.4
2017-06-01T11:35:54.988Z,15.71
2017-06-01T11:36:54.968Z,15.4
2017-06-01T11:37:54.963Z,15.07
2017-06-01T11:38:54.659Z,14.38
2017-06-01T11:39:54.954Z,13.87
2017-06-01T11:40:54.652Z,13.96
2017-06-01T11:41:54.644Z,13.94
2017-06-01T11:42:54.943Z,14.17
2017-06-01T11:43:54.937Z,13.71
2017-06-01T11:44:54.331Z,13.14
2017-06-01T11:45:54.631Z,13.61
2017-06-01T11:46:54.925Z,14.59
2017-06-01T11:47:54.916Z,15.66
2017-06-01T11:48:54.917Z,16.54
2017-06-01T11:49:54.613Z,17.07
2017-06-01T11:50:54.910Z,17.55
2017-06-01T11:51:54.901Z,17.96
2017-06-01T11:52:54.599Z,17.28
2017-06-01T11:53:54.897Z,16.54
2017-06-01T11:54:54.894Z,16.18
2017-06-01T11:55:54.890Z,16.16
2017-06-01T11:56:54.883Z,16.57
2017-06-01T11:57:54.881Z,16.52
2017-06-01T11:58:54.875Z,15.95
2017-06-01T11:59:54.873Z,15.92
2017-06-01T12:00:54.866Z,15.77
2017-06-01T12:01:54.859Z,15.03
2017-06-01T12:02:54.864Z,14.97
2017-06-01T12:03:54.855Z,15.18
2017-06-01T12:04:54.549Z,15.33
2017-06-01T12:05:54.548Z,15.92
2017-06-01T12:06:54.239Z,16.29
2017-06-01T12:07:54.840Z,16.91
2017-06-01T12:08:54.837Z,17.45
2017-06-01T12:09:54.833Z,18.32
2017-06-01T12:10:54.829Z,17.96
2017-06-01T12:11:54.821Z,16.77
2017-06-01T12:12:54.820Z,15.59
2017-06-01T12:13:54.816Z,15.86
2017-06-01T12:14:54.814Z,15.95
2017-06-01T12:15:54.811Z,15.84
2017-06-01T12:16:54.808Z,15.53
2017-06-01T12:17:54.807Z,14.16
2017-06-01T12:18:54.498Z,13.46
2017-06-01T12:19:54.797Z,13.03
2017-06-01T12:20:54.791Z,12.98
2017-06-01T12:21:54.788Z,12.74
2017-06-01T12:22:54.777Z,12.61
2017-06-01T12:23:54.782Z,12.44
2017-06-01T12:24:54.782Z,12.21
2017-06-01T12:25:54.769Z,12.18
2017-06-01T12:26:54.760Z,12.34
2017-06-01T12:27:54.755Z,12.58
2017-06-01T12:28:54.756Z,12.74
2017-06-01T12:29:54.445Z,12.92
2017-06-01T12:30:54.741Z,12.79
2017-06-01T12:31:54.740Z,12.77
2017-06-01T12:32:54.735Z,12.71
2017-06-01T12:33:54.730Z,12.66
2017-06-01T12:34:54.718Z,12.88
2017-06-01T12:35:54.719Z,13.03
2017-06-01T12:36:54.408Z,12.33
2017-06-01T12:37:54.705Z,11.41
2017-06-01T12:38:54.703Z,10.94
2017-06-01T12:39:54.695Z,11.33
2017-06-01T12:40:54.697Z,11.46
2017-06-01T12:41:54.384Z,11.69
2017-06-01T12:42:54.676Z,11.77
2017-06-01T12:43:54.674Z,11.93
2017-06-01T12:44:54.367Z,11.66
2017-06-01T12:45:54.660Z,11.74
2017-06-01T12:46:54.355Z,11.87
2017-06-01T12:47:54.648Z,11.9
2017-06-01T12:48:54.651Z,12.08
2017-06-01T12:49:54.032Z,12.31
2017-06-01T12:50:54.332Z,12.34
2017-06-01T12:51:54.325Z,12.61
2017-06-01T12:52:54.618Z,12.87
2017-06-01T12:53:54.317Z,12.91
2017-06-01T12:54:54.312Z,12.61
2017-06-01T12:55:54.310Z,12.26
2017-06-01T12:56:54.300Z,12.55
2017-06-01T12:57:54.596Z,12.89
2017-06-01T12:58:53.986Z,13.04
2017-06-01T12:59:54.282Z,13.43
2017-06-01T13:00:54.582Z,13.73
2017-06-01T13:01:54.573Z,14.02
2017-06-01T13:02:54.567Z,13.81
2017-06-01T13:03:53.961Z,13.88
2017-06-01T13:04:53.953Z,13.63
2017-06-01T13:05:54.555Z,13.12
2017-06-01T13:06:54.549Z,12.88
2017-06-01T13:07:53.939Z,12.91
2017-06-01T13:08:54.540Z,12.63
2017-06-01T13:09:54.538Z,12.71
2017-06-01T13:10:54.226Z,12.7
2017-06-01T13:11:54.221Z,12.85